sensor_id;sensor_type;location;lat;lon;timestamp;P1;durP1;ratioP1;P2;durP2;ratioP2
7657;SDS011;8462;53.156;8.220;2024-01-10T00:01:56;24.87;;;14.10;;
7657;SDS011;8462;53.156;8.220;2024-01-10T00:04:23;28.23;;;16.27;;
7657;SDS011;8462;53.156;8.220;2024-01-10T00:06:50;27.73;;;15.67;;
7657;SDS011;8462;53.156;8.220;2024-01-10T00:09:17;27.30;;;16.20;;
7657;SDS011;8462;53.156;8.220;2024-01-10T00:11:45;24.30;;;16.07;;
7657;SDS011;8462;53.156;8.220;2024-01-10T00:14:14;31.03;;;16.57;;
7657;SDS011;8462;53.156;8.220;2024-01-10T00:16:41;29.80;;;14.93;;
7657;SDS011;8462;53.156;8.220;2024-01-10T00:19:08;30.57;;;18.27;;
7657;SDS011;8462;53.156;8.220;2024-01-10T00:21:35;29.50;;;17.33;;
7657;SDS011;8462;53.156;8.220;2024-01-10T00:24:03;27.93;;;14.70;;
7657;SDS011;8462;53.156;8.220;2024-01-10T00:26:30;28.70;;;16.30;;
7657;SDS011;8462;53.156;8.220;2024-01-10T00:28:59;33.37;;;16.60;;
7657;SDS011;8462;53.156;8.220;2024-01-10T00:31:27;31.57;;;17.67;;
7657;SDS011;8462;53.156;8.220;2024-01-10T00:33:54;31.40;;;17.17;;
7657;SDS011;8462;53.156;8.220;2024-01-10T00:36:21;32.13;;;18.40;;
7657;SDS011;8462;53.156;8.220;2024-01-10T00:38:54;31.43;;;17.40;;
7657;SDS011;8462;53.156;8.220;2024-01-10T00:41:21;33.63;;;17.27;;
7657;SDS011;8462;53.156;8.220;2024-01-10T00:43:49;35.87;;;18.90;;
7657;SDS011;8462;53.156;8.220;2024-01-10T00:46:17;25.43;;;15.57;;
7657;SDS011;8462;53.156;8.220;2024-01-10T00:48:44;28.57;;;15.63;;
7657;SDS011;8462;53.156;8.220;2024-01-10T00:51:11;30.10;;;16.67;;
7657;SDS011;8462;53.156;8.220;2024-01-10T00:53:38;29.47;;;17.30;;
7657;SDS011;8462;53.156;8.220;2024-01-10T00:56:05;30.00;;;17.13;;
7657;SDS011;8462;53.156;8.220;2024-01-10T00:58:35;29.07;;;16.13;;
7657;SDS011;8462;53.156;8.220;2024-01-10T01:01:02;28.63;;;16.97;;
7657;SDS011;8462;53.156;8.220;2024-01-10T01:03:30;26.57;;;15.97;;
7657;SDS011;8462;53.156;8.220;2024-01-10T01:05:58;29.60;;;17.27;;
7657;SDS011;8462;53.156;8.220;2024-01-10T01:08:25;27.70;;;16.20;;
7657;SDS011;8462;53.156;8.220;2024-01-10T01:10:52;30.07;;;18.50;;
7657;SDS011;8462;53.156;8.220;2024-01-10T01:13:22;27.23;;;16.90;;
7657;SDS011;8462;53.156;8.220;2024-01-10T01:15:49;32.73;;;17.00;;
7657;SDS011;8462;53.156;8.220;2024-01-10T01:18:15;33.33;;;16.83;;
7657;SDS011;8462;53.156;8.220;2024-01-10T01:20:45;29.93;;;16.03;;
7657;SDS011;8462;53.156;8.220;2024-01-10T01:23:14;29.20;;;16.67;;
7657;SDS011;8462;53.156;8.220;2024-01-10T01:25:41;27.33;;;16.23;;
7657;SDS011;8462;53.156;8.220;2024-01-10T01:28:08;31.23;;;18.17;;
7657;SDS011;8462;53.156;8.220;2024-01-10T01:30:35;31.57;;;16.67;;
7657;SDS011;8462;53.156;8.220;2024-01-10T01:33:04;22.00;;;13.27;;
7657;SDS011;8462;53.156;8.220;2024-01-10T01:35:31;26.93;;;16.80;;
7657;SDS011;8462;53.156;8.220;2024-01-10T01:38:00;28.20;;;17.23;;
7657;SDS011;8462;53.156;8.220;2024-01-10T01:40:27;34.47;;;20.00;;
7657;SDS011;8462;53.156;8.220;2024-01-10T01:42:54;27.10;;;16.17;;
7657;SDS011;8462;53.156;8.220;2024-01-10T01:45:20;32.63;;;19.00;;
7657;SDS011;8462;53.156;8.220;2024-01-10T01:47:47;30.37;;;17.77;;
7657;SDS011;8462;53.156;8.220;2024-01-10T01:50:17;25.63;;;16.07;;
7657;SDS011;8462;53.156;8.220;2024-01-10T01:52:44;31.87;;;19.07;;
7657;SDS011;8462;53.156;8.220;2024-01-10T01:55:12;27.27;;;14.60;;
7657;SDS011;8462;53.156;8.220;2024-01-10T01:57:40;26.57;;;15.73;;
7657;SDS011;8462;53.156;8.220;2024-01-10T02:00:07;30.93;;;17.43;;
7657;SDS011;8462;53.156;8.220;2024-01-10T02:02:35;22.90;;;14.27;;
7657;SDS011;8462;53.156;8.220;2024-01-10T02:05:03;31.50;;;16.47;;
7657;SDS011;8462;53.156;8.220;2024-01-10T02:07:31;29.80;;;18.50;;
7657;SDS011;8462;53.156;8.220;2024-01-10T02:09:58;31.43;;;18.87;;
7657;SDS011;8462;53.156;8.220;2024-01-10T02:12:27;29.40;;;18.03;;
7657;SDS011;8462;53.156;8.220;2024-01-10T02:14:54;29.93;;;18.20;;
7657;SDS011;8462;53.156;8.220;2024-01-10T02:17:21;35.17;;;21.43;;
7657;SDS011;8462;53.156;8.220;2024-01-10T02:19:48;30.57;;;18.73;;
7657;SDS011;8462;53.156;8.220;2024-01-10T02:22:15;30.87;;;20.07;;
7657;SDS011;8462;53.156;8.220;2024-01-10T02:24:42;33.13;;;20.37;;
7657;SDS011;8462;53.156;8.220;2024-01-10T02:27:10;35.53;;;19.60;;
7657;SDS011;8462;53.156;8.220;2024-01-10T02:29:38;32.70;;;18.87;;
7657;SDS011;8462;53.156;8.220;2024-01-10T02:32:05;30.83;;;18.33;;
7657;SDS011;8462;53.156;8.220;2024-01-10T02:34:32;31.23;;;19.53;;
7657;SDS011;8462;53.156;8.220;2024-01-10T02:36:59;30.13;;;16.63;;
7657;SDS011;8462;53.156;8.220;2024-01-10T02:39:27;34.10;;;20.00;;
7657;SDS011;8462;53.156;8.220;2024-01-10T02:41:54;31.47;;;19.20;;
7657;SDS011;8462;53.156;8.220;2024-01-10T02:44:23;27.30;;;16.50;;
7657;SDS011;8462;53.156;8.220;2024-01-10T02:46:50;33.10;;;18.87;;
7657;SDS011;8462;53.156;8.220;2024-01-10T02:49:17;33.20;;;20.07;;
7657;SDS011;8462;53.156;8.220;2024-01-10T02:51:44;25.57;;;15.13;;
7657;SDS011;8462;53.156;8.220;2024-01-10T02:54:11;29.00;;;16.63;;
7657;SDS011;8462;53.156;8.220;2024-01-10T02:56:38;29.20;;;17.57;;
7657;SDS011;8462;53.156;8.220;2024-01-10T02:59:05;24.37;;;14.83;;
7657;SDS011;8462;53.156;8.220;2024-01-10T03:01:35;27.53;;;16.80;;
7657;SDS011;8462;53.156;8.220;2024-01-10T03:04:03;33.03;;;18.07;;
7657;SDS011;8462;53.156;8.220;2024-01-10T03:06:30;30.80;;;19.67;;
7657;SDS011;8462;53.156;8.220;2024-01-10T03:08:58;32.53;;;18.00;;
7657;SDS011;8462;53.156;8.220;2024-01-10T03:11:25;32.87;;;19.13;;
7657;SDS011;8462;53.156;8.220;2024-01-10T03:14:02;42.00;;;22.47;;
7657;SDS011;8462;53.156;8.220;2024-01-10T03:16:30;31.87;;;19.47;;
7657;SDS011;8462;53.156;8.220;2024-01-10T03:18:58;36.27;;;21.50;;
7657;SDS011;8462;53.156;8.220;2024-01-10T03:21:26;29.67;;;18.90;;
7657;SDS011;8462;53.156;8.220;2024-01-10T03:23:54;33.13;;;18.83;;
7657;SDS011;8462;53.156;8.220;2024-01-10T03:26:22;32.57;;;20.37;;
7657;SDS011;8462;53.156;8.220;2024-01-10T03:28:49;33.33;;;19.33;;
7657;SDS011;8462;53.156;8.220;2024-01-10T03:31:16;37.20;;;21.97;;
7657;SDS011;8462;53.156;8.220;2024-01-10T03:33:45;28.83;;;18.27;;
7657;SDS011;8462;53.156;8.220;2024-01-10T03:36:14;35.70;;;21.03;;
7657;SDS011;8462;53.156;8.220;2024-01-10T03:38:43;37.07;;;21.37;;
7657;SDS011;8462;53.156;8.220;2024-01-10T03:41:12;25.63;;;12.97;;
7657;SDS011;8462;53.156;8.220;2024-01-10T03:43:40;20.47;;;13.40;;
7657;SDS011;8462;53.156;8.220;2024-01-10T03:46:07;26.27;;;15.00;;
7657;SDS011;8462;53.156;8.220;2024-01-10T03:48:35;28.03;;;15.87;;
7657;SDS011;8462;53.156;8.220;2024-01-10T03:51:03;25.20;;;14.10;;
7657;SDS011;8462;53.156;8.220;2024-01-10T03:53:32;32.33;;;20.07;;
7657;SDS011;8462;53.156;8.220;2024-01-10T03:55:59;38.40;;;24.30;;
7657;SDS011;8462;53.156;8.220;2024-01-10T03:58:30;42.27;;;23.60;;
7657;SDS011;8462;53.156;8.220;2024-01-10T04:00:57;33.97;;;20.73;;
7657;SDS011;8462;53.156;8.220;2024-01-10T04:03:24;34.60;;;18.53;;
7657;SDS011;8462;53.156;8.220;2024-01-10T04:05:51;32.83;;;18.03;;
7657;SDS011;8462;53.156;8.220;2024-01-10T04:08:18;45.30;;;23.60;;
7657;SDS011;8462;53.156;8.220;2024-01-10T04:10:47;37.97;;;22.70;;
7657;SDS011;8462;53.156;8.220;2024-01-10T04:13:15;43.13;;;23.40;;
7657;SDS011;8462;53.156;8.220;2024-01-10T04:15:42;29.00;;;16.87;;
7657;SDS011;8462;53.156;8.220;2024-01-10T04:18:10;54.27;;;22.47;;
7657;SDS011;8462;53.156;8.220;2024-01-10T04:20:37;41.03;;;22.53;;
7657;SDS011;8462;53.156;8.220;2024-01-10T04:23:04;36.33;;;16.87;;
7657;SDS011;8462;53.156;8.220;2024-01-10T04:25:31;40.27;;;20.80;;
7657;SDS011;8462;53.156;8.220;2024-01-10T04:27:59;43.13;;;22.10;;
7657;SDS011;8462;53.156;8.220;2024-01-10T04:30:27;34.90;;;17.23;;
7657;SDS011;8462;53.156;8.220;2024-01-10T04:32:54;36.47;;;19.93;;
7657;SDS011;8462;53.156;8.220;2024-01-10T04:35:21;48.57;;;21.57;;
7657;SDS011;8462;53.156;8.220;2024-01-10T04:37:47;37.40;;;19.23;;
7657;SDS011;8462;53.156;8.220;2024-01-10T04:40:15;46.67;;;24.07;;
7657;SDS011;8462;53.156;8.220;2024-01-10T04:42:42;31.37;;;15.57;;
7657;SDS011;8462;53.156;8.220;2024-01-10T04:45:11;38.70;;;18.53;;
7657;SDS011;8462;53.156;8.220;2024-01-10T04:47:38;39.37;;;21.00;;
7657;SDS011;8462;53.156;8.220;2024-01-10T04:50:06;38.43;;;20.53;;
7657;SDS011;8462;53.156;8.220;2024-01-10T04:52:33;42.70;;;20.97;;
7657;SDS011;8462;53.156;8.220;2024-01-10T04:55:01;41.90;;;20.87;;
7657;SDS011;8462;53.156;8.220;2024-01-10T04:57:30;37.83;;;20.03;;
7657;SDS011;8462;53.156;8.220;2024-01-10T04:59:58;37.53;;;18.70;;
7657;SDS011;8462;53.156;8.220;2024-01-10T05:02:26;47.90;;;23.13;;
7657;SDS011;8462;53.156;8.220;2024-01-10T05:04:53;46.37;;;22.80;;
7657;SDS011;8462;53.156;8.220;2024-01-10T05:07:20;38.90;;;18.17;;
7657;SDS011;8462;53.156;8.220;2024-01-10T05:09:47;30.97;;;15.40;;
7657;SDS011;8462;53.156;8.220;2024-01-10T05:12:14;35.73;;;17.20;;
7657;SDS011;8462;53.156;8.220;2024-01-10T05:14:42;31.30;;;15.97;;
7657;SDS011;8462;53.156;8.220;2024-01-10T05:17:09;35.00;;;16.53;;
7657;SDS011;8462;53.156;8.220;2024-01-10T05:19:38;36.53;;;17.43;;
7657;SDS011;8462;53.156;8.220;2024-01-10T05:22:05;24.97;;;12.90;;
7657;SDS011;8462;53.156;8.220;2024-01-10T05:24:32;37.80;;;19.20;;
7657;SDS011;8462;53.156;8.220;2024-01-10T05:27:01;26.17;;;13.73;;
7657;SDS011;8462;53.156;8.220;2024-01-10T05:29:28;46.27;;;21.43;;
7657;SDS011;8462;53.156;8.220;2024-01-10T05:31:56;42.67;;;20.40;;
7657;SDS011;8462;53.156;8.220;2024-01-10T05:34:23;34.03;;;17.57;;
7657;SDS011;8462;53.156;8.220;2024-01-10T05:36:51;41.40;;;20.80;;
7657;SDS011;8462;53.156;8.220;2024-01-10T05:39:19;39.33;;;19.33;;
7657;SDS011;8462;53.156;8.220;2024-01-10T05:41:46;29.87;;;14.33;;
7657;SDS011;8462;53.156;8.220;2024-01-10T05:44:13;36.83;;;15.87;;
7657;SDS011;8462;53.156;8.220;2024-01-10T05:46:41;45.60;;;22.63;;
7657;SDS011;8462;53.156;8.220;2024-01-10T05:49:08;47.40;;;21.20;;
7657;SDS011;8462;53.156;8.220;2024-01-10T05:51:35;43.97;;;19.20;;
7657;SDS011;8462;53.156;8.220;2024-01-10T05:54:04;43.93;;;21.17;;
7657;SDS011;8462;53.156;8.220;2024-01-10T05:56:32;50.00;;;21.97;;
7657;SDS011;8462;53.156;8.220;2024-01-10T05:58:59;46.57;;;21.67;;
7657;SDS011;8462;53.156;8.220;2024-01-10T06:01:26;36.70;;;18.60;;
7657;SDS011;8462;53.156;8.220;2024-01-10T06:03:56;39.20;;;18.40;;
7657;SDS011;8462;53.156;8.220;2024-01-10T06:06:23;39.97;;;20.17;;
7657;SDS011;8462;53.156;8.220;2024-01-10T06:08:50;47.00;;;22.90;;
7657;SDS011;8462;53.156;8.220;2024-01-10T06:11:19;44.87;;;19.67;;
7657;SDS011;8462;53.156;8.220;2024-01-10T06:13:46;32.87;;;14.87;;
7657;SDS011;8462;53.156;8.220;2024-01-10T06:16:13;38.13;;;16.90;;
7657;SDS011;8462;53.156;8.220;2024-01-10T06:18:42;42.20;;;19.00;;
7657;SDS011;8462;53.156;8.220;2024-01-10T06:21:09;38.10;;;19.67;;
7657;SDS011;8462;53.156;8.220;2024-01-10T06:23:37;42.27;;;17.90;;
7657;SDS011;8462;53.156;8.220;2024-01-10T06:26:04;37.93;;;18.23;;
7657;SDS011;8462;53.156;8.220;2024-01-10T06:28:33;39.03;;;20.03;;
7657;SDS011;8462;53.156;8.220;2024-01-10T06:31:00;39.13;;;18.17;;
7657;SDS011;8462;53.156;8.220;2024-01-10T06:33:29;34.00;;;16.13;;
7657;SDS011;8462;53.156;8.220;2024-01-10T06:35:56;41.93;;;19.47;;
7657;SDS011;8462;53.156;8.220;2024-01-10T06:38:24;29.40;;;13.57;;
7657;SDS011;8462;53.156;8.220;2024-01-10T06:40:51;41.17;;;19.63;;
7657;SDS011;8462;53.156;8.220;2024-01-10T06:43:18;34.80;;;16.30;;
7657;SDS011;8462;53.156;8.220;2024-01-10T06:45:46;40.93;;;17.20;;
7657;SDS011;8462;53.156;8.220;2024-01-10T06:48:14;38.40;;;19.80;;
7657;SDS011;8462;53.156;8.220;2024-01-10T06:50:41;40.43;;;16.43;;
7657;SDS011;8462;53.156;8.220;2024-01-10T06:53:09;26.50;;;11.67;;
7657;SDS011;8462;53.156;8.220;2024-01-10T06:55:36;35.40;;;16.57;;
7657;SDS011;8462;53.156;8.220;2024-01-10T06:58:03;42.23;;;18.03;;
7657;SDS011;8462;53.156;8.220;2024-01-10T07:00:30;44.60;;;19.00;;
7657;SDS011;8462;53.156;8.220;2024-01-10T07:03:02;49.47;;;20.33;;
7657;SDS011;8462;53.156;8.220;2024-01-10T07:05:29;33.33;;;15.70;;
7657;SDS011;8462;53.156;8.220;2024-01-10T07:07:56;31.40;;;14.97;;
7657;SDS011;8462;53.156;8.220;2024-01-10T07:10:23;39.03;;;18.07;;
7657;SDS011;8462;53.156;8.220;2024-01-10T07:12:52;37.47;;;16.10;;
7657;SDS011;8462;53.156;8.220;2024-01-10T07:15:19;38.53;;;18.43;;
7657;SDS011;8462;53.156;8.220;2024-01-10T07:17:48;39.13;;;16.97;;
7657;SDS011;8462;53.156;8.220;2024-01-10T07:20:16;42.27;;;18.60;;
7657;SDS011;8462;53.156;8.220;2024-01-10T07:22:45;41.37;;;18.60;;
7657;SDS011;8462;53.156;8.220;2024-01-10T07:25:12;30.37;;;15.47;;
7657;SDS011;8462;53.156;8.220;2024-01-10T07:27:40;35.70;;;16.57;;
7657;SDS011;8462;53.156;8.220;2024-01-10T07:30:07;37.10;;;15.20;;
7657;SDS011;8462;53.156;8.220;2024-01-10T07:32:38;34.90;;;15.33;;
7657;SDS011;8462;53.156;8.220;2024-01-10T07:35:06;64.40;;;21.83;;
7657;SDS011;8462;53.156;8.220;2024-01-10T07:37:36;46.60;;;17.87;;
7657;SDS011;8462;53.156;8.220;2024-01-10T07:40:04;38.67;;;19.23;;
7657;SDS011;8462;53.156;8.220;2024-01-10T07:42:32;39.90;;;17.47;;
7657;SDS011;8462;53.156;8.220;2024-01-10T07:44:59;40.70;;;18.70;;
7657;SDS011;8462;53.156;8.220;2024-01-10T07:47:29;38.40;;;18.10;;
7657;SDS011;8462;53.156;8.220;2024-01-10T07:49:56;45.60;;;19.53;;
7657;SDS011;8462;53.156;8.220;2024-01-10T07:52:23;52.00;;;18.77;;
7657;SDS011;8462;53.156;8.220;2024-01-10T07:54:51;26.50;;;13.20;;
7657;SDS011;8462;53.156;8.220;2024-01-10T07:57:19;35.10;;;17.10;;
7657;SDS011;8462;53.156;8.220;2024-01-10T07:59:49;35.80;;;17.33;;
7657;SDS011;8462;53.156;8.220;2024-01-10T08:02:17;33.50;;;14.83;;
7657;SDS011;8462;53.156;8.220;2024-01-10T08:04:44;41.50;;;18.63;;
7657;SDS011;8462;53.156;8.220;2024-01-10T08:07:12;32.40;;;14.77;;
7657;SDS011;8462;53.156;8.220;2024-01-10T08:09:39;34.20;;;13.67;;
7657;SDS011;8462;53.156;8.220;2024-01-10T08:12:07;23.60;;;12.67;;
7657;SDS011;8462;53.156;8.220;2024-01-10T08:14:34;32.20;;;15.20;;
7657;SDS011;8462;53.156;8.220;2024-01-10T08:17:03;38.63;;;17.27;;
7657;SDS011;8462;53.156;8.220;2024-01-10T08:19:31;32.90;;;14.90;;
7657;SDS011;8462;53.156;8.220;2024-01-10T08:21:58;35.07;;;15.73;;
7657;SDS011;8462;53.156;8.220;2024-01-10T08:24:25;31.87;;;17.00;;
7657;SDS011;8462;53.156;8.220;2024-01-10T08:26:54;28.40;;;15.70;;
7657;SDS011;8462;53.156;8.220;2024-01-10T08:29:23;38.10;;;16.20;;
7657;SDS011;8462;53.156;8.220;2024-01-10T08:31:55;31.27;;;15.17;;
7657;SDS011;8462;53.156;8.220;2024-01-10T08:34:22;32.77;;;14.67;;
7657;SDS011;8462;53.156;8.220;2024-01-10T08:36:50;42.33;;;19.80;;
7657;SDS011;8462;53.156;8.220;2024-01-10T08:39:18;25.97;;;11.90;;
7657;SDS011;8462;53.156;8.220;2024-01-10T08:41:48;39.40;;;18.93;;
7657;SDS011;8462;53.156;8.220;2024-01-10T08:44:15;27.50;;;11.87;;
7657;SDS011;8462;53.156;8.220;2024-01-10T08:46:43;26.10;;;12.37;;
7657;SDS011;8462;53.156;8.220;2024-01-10T08:49:10;37.37;;;20.00;;
7657;SDS011;8462;53.156;8.220;2024-01-10T08:51:37;33.50;;;15.43;;
7657;SDS011;8462;53.156;8.220;2024-01-10T08:54:06;34.63;;;16.03;;
7657;SDS011;8462;53.156;8.220;2024-01-10T08:56:35;41.10;;;17.50;;
7657;SDS011;8462;53.156;8.220;2024-01-10T08:59:03;34.77;;;17.00;;
7657;SDS011;8462;53.156;8.220;2024-01-10T09:01:30;32.70;;;16.43;;
7657;SDS011;8462;53.156;8.220;2024-01-10T09:03:59;26.73;;;14.50;;
7657;SDS011;8462;53.156;8.220;2024-01-10T09:06:26;24.90;;;13.67;;
7657;SDS011;8462;53.156;8.220;2024-01-10T09:08:53;31.70;;;16.07;;
7657;SDS011;8462;53.156;8.220;2024-01-10T09:11:21;30.03;;;14.97;;
7657;SDS011;8462;53.156;8.220;2024-01-10T09:13:49;34.10;;;17.13;;
7657;SDS011;8462;53.156;8.220;2024-01-10T09:16:16;29.77;;;14.47;;
7657;SDS011;8462;53.156;8.220;2024-01-10T09:18:45;29.07;;;14.17;;
7657;SDS011;8462;53.156;8.220;2024-01-10T09:21:18;29.70;;;14.87;;
7657;SDS011;8462;53.156;8.220;2024-01-10T09:23:47;21.90;;;9.97;;
7657;SDS011;8462;53.156;8.220;2024-01-10T09:26:16;29.33;;;14.30;;
7657;SDS011;8462;53.156;8.220;2024-01-10T09:28:43;25.43;;;12.20;;
7657;SDS011;8462;53.156;8.220;2024-01-10T09:31:10;29.80;;;15.50;;
7657;SDS011;8462;53.156;8.220;2024-01-10T09:33:39;24.20;;;11.50;;
7657;SDS011;8462;53.156;8.220;2024-01-10T09:36:06;25.40;;;14.17;;
7657;SDS011;8462;53.156;8.220;2024-01-10T09:38:36;28.97;;;16.27;;
7657;SDS011;8462;53.156;8.220;2024-01-10T09:41:03;27.23;;;12.07;;
7657;SDS011;8462;53.156;8.220;2024-01-10T09:43:31;30.07;;;13.73;;
7657;SDS011;8462;53.156;8.220;2024-01-10T09:45:59;26.23;;;14.80;;
7657;SDS011;8462;53.156;8.220;2024-01-10T09:48:29;25.07;;;12.80;;
7657;SDS011;8462;53.156;8.220;2024-01-10T09:50:59;22.90;;;12.47;;
7657;SDS011;8462;53.156;8.220;2024-01-10T09:53:27;12.87;;;8.17;;
7657;SDS011;8462;53.156;8.220;2024-01-10T09:55:59;15.00;;;7.13;;
7657;SDS011;8462;53.156;8.220;2024-01-10T09:58:29;17.57;;;10.87;;
7657;SDS011;8462;53.156;8.220;2024-01-10T10:01:04;25.07;;;13.60;;
7657;SDS011;8462;53.156;8.220;2024-01-10T10:03:32;21.97;;;12.97;;
7657;SDS011;8462;53.156;8.220;2024-01-10T10:06:03;23.30;;;13.57;;
7657;SDS011;8462;53.156;8.220;2024-01-10T10:08:30;18.57;;;10.30;;
7657;SDS011;8462;53.156;8.220;2024-01-10T10:11:00;20.80;;;11.63;;
7657;SDS011;8462;53.156;8.220;2024-01-10T10:13:28;16.47;;;8.77;;
7657;SDS011;8462;53.156;8.220;2024-01-10T10:15:59;24.70;;;12.43;;
7657;SDS011;8462;53.156;8.220;2024-01-10T10:18:28;17.63;;;10.97;;
7657;SDS011;8462;53.156;8.220;2024-01-10T10:23:42;19.00;;;10.80;;
7657;SDS011;8462;53.156;8.220;2024-01-10T10:26:26;14.93;;;9.80;;
7657;SDS011;8462;53.156;8.220;2024-01-10T10:28:54;18.47;;;9.83;;
7657;SDS011;8462;53.156;8.220;2024-01-10T10:31:22;9.97;;;5.23;;
7657;SDS011;8462;53.156;8.220;2024-01-10T10:33:50;19.63;;;11.00;;
7657;SDS011;8462;53.156;8.220;2024-01-10T10:36:19;15.90;;;9.43;;
7657;SDS011;8462;53.156;8.220;2024-01-10T10:38:47;17.10;;;9.83;;
7657;SDS011;8462;53.156;8.220;2024-01-10T10:41:14;17.53;;;10.03;;
7657;SDS011;8462;53.156;8.220;2024-01-10T10:43:43;20.80;;;10.03;;
7657;SDS011;8462;53.156;8.220;2024-01-10T10:46:10;18.47;;;9.70;;
7657;SDS011;8462;53.156;8.220;2024-01-10T10:48:38;18.17;;;9.90;;
7657;SDS011;8462;53.156;8.220;2024-01-10T10:51:06;17.27;;;9.17;;
7657;SDS011;8462;53.156;8.220;2024-01-10T10:53:35;16.37;;;6.73;;
7657;SDS011;8462;53.156;8.220;2024-01-10T10:56:05;20.73;;;9.23;;
7657;SDS011;8462;53.156;8.220;2024-01-10T10:58:34;18.13;;;10.07;;
7657;SDS011;8462;53.156;8.220;2024-01-10T11:01:06;16.60;;;9.40;;
7657;SDS011;8462;53.156;8.220;2024-01-10T11:03:34;17.67;;;8.33;;
7657;SDS011;8462;53.156;8.220;2024-01-10T11:06:03;14.90;;;8.63;;
7657;SDS011;8462;53.156;8.220;2024-01-10T11:08:34;15.43;;;9.07;;
7657;SDS011;8462;53.156;8.220;2024-01-10T11:11:03;11.23;;;6.87;;
7657;SDS011;8462;53.156;8.220;2024-01-10T11:13:46;17.47;;;8.67;;
7657;SDS011;8462;53.156;8.220;2024-01-10T11:16:38;16.37;;;8.90;;
7657;SDS011;8462;53.156;8.220;2024-01-10T11:25:37;14.33;;;8.60;;
7657;SDS011;8462;53.156;8.220;2024-01-10T11:28:05;12.80;;;7.60;;
7657;SDS011;8462;53.156;8.220;2024-01-10T11:30:33;15.83;;;8.60;;
7657;SDS011;8462;53.156;8.220;2024-01-10T11:33:08;16.03;;;9.83;;
7657;SDS011;8462;53.156;8.220;2024-01-10T11:38:39;13.83;;;8.20;;
7657;SDS011;8462;53.156;8.220;2024-01-10T11:41:12;15.93;;;8.97;;
7657;SDS011;8462;53.156;8.220;2024-01-10T11:43:41;17.00;;;8.87;;
7657;SDS011;8462;53.156;8.220;2024-01-10T11:46:09;14.50;;;7.43;;
7657;SDS011;8462;53.156;8.220;2024-01-10T11:48:40;16.63;;;9.20;;
7657;SDS011;8462;53.156;8.220;2024-01-10T11:51:08;12.77;;;6.83;;
7657;SDS011;8462;53.156;8.220;2024-01-10T11:53:39;17.03;;;8.60;;
7657;SDS011;8462;53.156;8.220;2024-01-10T11:56:10;15.20;;;8.47;;
7657;SDS011;8462;53.156;8.220;2024-01-10T11:58:53;10.23;;;6.40;;
7657;SDS011;8462;53.156;8.220;2024-01-10T12:01:20;15.43;;;8.37;;
7657;SDS011;8462;53.156;8.220;2024-01-10T12:03:51;13.37;;;7.30;;
7657;SDS011;8462;53.156;8.220;2024-01-10T12:06:19;12.37;;;6.83;;
7657;SDS011;8462;53.156;8.220;2024-01-10T12:08:48;12.57;;;5.73;;
7657;SDS011;8462;53.156;8.220;2024-01-10T12:11:15;10.53;;;6.10;;
7657;SDS011;8462;53.156;8.220;2024-01-10T12:13:44;7.13;;;4.80;;
7657;SDS011;8462;53.156;8.220;2024-01-10T12:16:12;11.27;;;6.20;;
7657;SDS011;8462;53.156;8.220;2024-01-10T12:18:41;10.63;;;6.27;;
7657;SDS011;8462;53.156;8.220;2024-01-10T12:21:10;11.30;;;5.93;;
7657;SDS011;8462;53.156;8.220;2024-01-10T12:23:37;11.87;;;6.90;;
7657;SDS011;8462;53.156;8.220;2024-01-10T12:26:07;12.70;;;7.77;;
7657;SDS011;8462;53.156;8.220;2024-01-10T12:28:38;13.73;;;7.10;;
7657;SDS011;8462;53.156;8.220;2024-01-10T12:31:05;10.90;;;5.20;;
7657;SDS011;8462;53.156;8.220;2024-01-10T12:33:33;7.37;;;4.77;;
7657;SDS011;8462;53.156;8.220;2024-01-10T12:36:07;11.77;;;6.50;;
7657;SDS011;8462;53.156;8.220;2024-01-10T12:38:36;10.50;;;6.10;;
7657;SDS011;8462;53.156;8.220;2024-01-10T12:41:05;12.17;;;7.20;;
7657;SDS011;8462;53.156;8.220;2024-01-10T12:43:34;13.03;;;6.07;;
7657;SDS011;8462;53.156;8.220;2024-01-10T12:46:07;10.70;;;6.60;;
7657;SDS011;8462;53.156;8.220;2024-01-10T12:48:35;10.43;;;5.83;;
7657;SDS011;8462;53.156;8.220;2024-01-10T12:51:04;11.27;;;6.67;;
7657;SDS011;8462;53.156;8.220;2024-01-10T12:53:34;12.37;;;6.93;;
7657;SDS011;8462;53.156;8.220;2024-01-10T12:56:04;14.10;;;6.40;;
7657;SDS011;8462;53.156;8.220;2024-01-10T12:58:33;12.63;;;7.20;;
7657;SDS011;8462;53.156;8.220;2024-01-10T13:01:03;10.20;;;6.67;;
7657;SDS011;8462;53.156;8.220;2024-01-10T13:03:30;8.73;;;4.60;;
7657;SDS011;8462;53.156;8.220;2024-01-10T13:05:57;11.57;;;6.87;;
7657;SDS011;8462;53.156;8.220;2024-01-10T13:08:24;11.33;;;7.13;;
7657;SDS011;8462;53.156;8.220;2024-01-10T13:10:53;10.87;;;6.83;;
7657;SDS011;8462;53.156;8.220;2024-01-10T13:13:20;12.47;;;6.97;;
7657;SDS011;8462;53.156;8.220;2024-01-10T13:15:49;10.23;;;7.07;;
7657;SDS011;8462;53.156;8.220;2024-01-10T13:18:17;8.30;;;5.90;;
7657;SDS011;8462;53.156;8.220;2024-01-10T13:20:45;12.63;;;7.97;;
7657;SDS011;8462;53.156;8.220;2024-01-10T13:23:12;10.77;;;7.33;;
7657;SDS011;8462;53.156;8.220;2024-01-10T13:25:40;11.43;;;7.27;;
7657;SDS011;8462;53.156;8.220;2024-01-10T13:28:09;9.40;;;7.00;;
7657;SDS011;8462;53.156;8.220;2024-01-10T13:30:37;12.40;;;7.43;;
7657;SDS011;8462;53.156;8.220;2024-01-10T13:33:06;10.60;;;5.90;;
7657;SDS011;8462;53.156;8.220;2024-01-10T13:35:34;12.30;;;8.47;;
7657;SDS011;8462;53.156;8.220;2024-01-10T13:38:01;8.63;;;6.03;;
7657;SDS011;8462;53.156;8.220;2024-01-10T13:40:28;14.23;;;7.43;;
7657;SDS011;8462;53.156;8.220;2024-01-10T13:42:57;14.83;;;8.63;;
7657;SDS011;8462;53.156;8.220;2024-01-10T13:45:28;15.70;;;9.93;;
7657;SDS011;8462;53.156;8.220;2024-01-10T13:47:56;12.97;;;8.20;;
7657;SDS011;8462;53.156;8.220;2024-01-10T13:50:25;13.50;;;7.80;;
7657;SDS011;8462;53.156;8.220;2024-01-10T13:52:53;11.23;;;6.97;;
7657;SDS011;8462;53.156;8.220;2024-01-10T13:55:20;12.13;;;7.37;;
7657;SDS011;8462;53.156;8.220;2024-01-10T13:57:49;8.23;;;5.03;;
7657;SDS011;8462;53.156;8.220;2024-01-10T14:00:18;14.07;;;7.90;;
7657;SDS011;8462;53.156;8.220;2024-01-10T14:02:48;9.23;;;5.80;;
7657;SDS011;8462;53.156;8.220;2024-01-10T14:05:15;9.10;;;6.33;;
7657;SDS011;8462;53.156;8.220;2024-01-10T14:07:42;11.50;;;6.53;;
7657;SDS011;8462;53.156;8.220;2024-01-10T14:10:11;13.57;;;8.27;;
7657;SDS011;8462;53.156;8.220;2024-01-10T14:12:38;11.40;;;7.80;;
7657;SDS011;8462;53.156;8.220;2024-01-10T14:15:06;11.20;;;7.17;;
7657;SDS011;8462;53.156;8.220;2024-01-10T14:17:34;13.83;;;7.43;;
7657;SDS011;8462;53.156;8.220;2024-01-10T14:20:03;13.83;;;8.70;;
7657;SDS011;8462;53.156;8.220;2024-01-10T14:22:33;13.17;;;7.70;;
7657;SDS011;8462;53.156;8.220;2024-01-10T14:25:01;13.50;;;8.47;;
7657;SDS011;8462;53.156;8.220;2024-01-10T14:27:28;10.27;;;6.73;;
7657;SDS011;8462;53.156;8.220;2024-01-10T14:29:55;10.90;;;6.40;;
7657;SDS011;8462;53.156;8.220;2024-01-10T14:32:24;11.20;;;7.23;;
7657;SDS011;8462;53.156;8.220;2024-01-10T14:34:52;11.70;;;7.03;;
7657;SDS011;8462;53.156;8.220;2024-01-10T14:37:20;12.57;;;6.70;;
7657;SDS011;8462;53.156;8.220;2024-01-10T14:39:48;10.93;;;6.23;;
7657;SDS011;8462;53.156;8.220;2024-01-10T14:42:16;10.33;;;6.30;;
7657;SDS011;8462;53.156;8.220;2024-01-10T14:44:43;13.60;;;7.93;;
7657;SDS011;8462;53.156;8.220;2024-01-10T14:47:10;13.27;;;8.23;;
7657;SDS011;8462;53.156;8.220;2024-01-10T14:49:37;11.70;;;7.53;;
7657;SDS011;8462;53.156;8.220;2024-01-10T14:52:05;12.70;;;6.87;;
7657;SDS011;8462;53.156;8.220;2024-01-10T14:54:34;8.90;;;6.13;;
7657;SDS011;8462;53.156;8.220;2024-01-10T14:57:01;14.27;;;8.23;;
7657;SDS011;8462;53.156;8.220;2024-01-10T14:59:28;13.67;;;8.37;;
7657;SDS011;8462;53.156;8.220;2024-01-10T15:01:55;14.00;;;8.23;;
7657;SDS011;8462;53.156;8.220;2024-01-10T15:04:22;14.27;;;9.40;;
7657;SDS011;8462;53.156;8.220;2024-01-10T15:06:49;14.90;;;9.17;;
7657;SDS011;8462;53.156;8.220;2024-01-10T15:09:16;11.30;;;8.13;;
7657;SDS011;8462;53.156;8.220;2024-01-10T15:11:46;12.33;;;8.97;;